Time;durP1;ratioP1;P1;durP2;ratioP2;P2;SDS_P1;SDS_P2;PMS_P1;PMS_P2;Temp;Humidity;BMP_temperature;BMP_pressure;BME280_temperature;BME280_humidity;BME280_pressure;Samples;Min_cycle;Max_cycle;Signal;HPM_P1;HPM_P2
2022/05/21 00:00:31;;;;;;;4.17;3.80;;;;;;;;;;5137367;27;20223;-72
2022/05/21 00:03:00;;;;;;;3.87;3.57;;;;;;;;;;5137086;27;20215;-73
2022/05/21 00:05:30;;;;;;;3.87;3.57;;;;;;;;;;5142101;27;20200;-72
2022/05/21 00:07:58;;;;;;;4.03;3.67;;;;;;;;;;5136974;27;20691;-72
2022/05/21 00:10:30;;;;;;;3.80;3.50;;;;;;;;;;5137359;27;20207;-73
2022/05/21 00:12:58;;;;;;;4.07;3.70;;;;;;;;;;5144586;27;20655;-72
2022/05/21 00:15:28;;;;;;;4.50;3.93;;;;;;;;;;5140870;27;20199;-73
2022/05/21 00:17:56;;;;;;;4.40;4.00;;;;;;;;;;5157268;27;20276;-72
2022/05/21 00:23:11;;;;;;;4.73;4.30;;;;;;;;;;5157536;27;20204;-72
2022/05/21 00:25:41;;;;;;;5.47;4.97;;;;;;;;;;5146507;27;20196;-72
2022/05/21 00:28:10;;;;;;;5.27;4.87;;;;;;;;;;5157388;27;20223;-72
2022/05/21 00:30:39;;;;;;;5.30;4.80;;;;;;;;;;5156491;27;20200;-72
2022/05/21 00:33:07;;;;;;;5.40;4.90;;;;;;;;;;5157450;27;20204;-72
2022/05/21 00:35:36;;;;;;;5.07;4.60;;;;;;;;;;5156661;27;20207;-73
2022/05/21 00:38:04;;;;;;;4.90;4.50;;;;;;;;;;5157638;27;20216;-70
2022/05/21 00:40:33;;;;;;;4.23;3.83;;;;;;;;;;5156721;27;20257;-71
2022/05/21 00:43:02;;;;;;;4.77;4.33;;;;;;;;;;5157242;27;20211;-72
2022/05/21 00:45:31;;;;;;;4.87;4.47;;;;;;;;;;5144489;27;20210;-72
2022/05/21 00:48:00;;;;;;;6.93;4.20;;;;;;;;;;5136465;27;20220;-72
2022/05/21 00:50:30;;;;;;;5.33;4.20;;;;;;;;;;5137455;27;20724;-73
2022/05/21 00:52:59;;;;;;;5.50;3.93;;;;;;;;;;5136833;27;20216;-72
2022/05/21 00:55:31;;;;;;;4.60;4.07;;;;;;;;;;5148224;27;20203;-72
2022/05/21 01:00:49;;;;;;;4.30;3.90;;;;;;;;;;5156476;27;20211;-72
2022/05/21 01:03:18;;;;;;;6.00;3.77;;;;;;;;;;5148281;27;20216;-73
2022/05/21 01:05:48;;;;;;;4.67;3.43;;;;;;;;;;5149456;27;20662;-72
2022/05/21 01:08:17;;;;;;;3.67;3.37;;;;;;;;;;5142431;27;20224;-72
2022/05/21 01:10:49;;;;;;;4.40;4.00;;;;;;;;;;5136224;27;20196;-73
2022/05/21 01:13:20;;;;;;;4.30;3.90;;;;;;;;;;5136933;27;20222;-72
2022/05/21 01:15:53;;;;;;;4.93;4.17;;;;;;;;;;5147752;27;20214;-73
2022/05/21 01:18:21;;;;;;;4.70;4.10;;;;;;;;;;5156775;27;20693;-72
2022/05/21 01:20:51;;;;;;;4.80;4.37;;;;;;;;;;5156784;27;20272;-73
2022/05/21 01:23:21;;;;;;;7.27;4.67;;;;;;;;;;5149582;27;20273;-72
2022/05/21 01:25:50;;;;;;;5.57;4.43;;;;;;;;;;5135641;27;20207;-73
2022/05/21 01:28:21;;;;;;;5.87;5.30;;;;;;;;;;5151048;27;20228;-73
2022/05/21 01:30:50;;;;;;;6.43;4.97;;;;;;;;;;5155957;27;20204;-73
2022/05/21 01:33:20;;;;;;;5.97;5.30;;;;;;;;;;5151989;27;20244;-72
2022/05/21 01:35:48;;;;;;;5.97;5.30;;;;;;;;;;5149184;27;20614;-73
2022/05/21 01:38:18;;;;;;;5.83;5.23;;;;;;;;;;5155841;27;20211;-73
2022/05/21 01:40:48;;;;;;;6.17;5.07;;;;;;;;;;5155607;27;20195;-73
2022/05/21 01:46:02;;;;;;;8.33;6.17;;;;;;;;;;5150429;27;20200;-73
2022/05/21 01:48:32;;;;;;;7.70;7.00;;;;;;;;;;5156390;27;20306;-73
2022/05/21 01:51:06;;;;;;;8.60;7.27;;;;;;;;;;5148203;27;20197;-73
2022/05/21 01:53:36;;;;;;;8.33;7.53;;;;;;;;;;5146784;27;20196;-71
2022/05/21 01:56:06;;;;;;;8.87;7.37;;;;;;;;;;5155417;27;20203;-73
2022/05/21 01:58:35;;;;;;;8.70;7.90;;;;;;;;;;5155690;27;20223;-72
2022/05/21 02:01:04;;;;;;;8.90;7.27;;;;;;;;;;5153943;27;20663;-72
2022/05/21 02:03:33;;;;;;;9.30;7.23;;;;;;;;;;5155465;27;20200;-73
2022/05/21 02:06:01;;;;;;;7.67;6.83;;;;;;;;;;5151090;27;20654;-72
2022/05/21 02:08:29;;;;;;;7.17;6.47;;;;;;;;;;5154936;27;20273;-73
2022/05/21 02:10:58;;;;;;;8.57;7.67;;;;;;;;;;5154363;27;20211;-73
2022/05/21 02:13:29;;;;;;;9.93;7.23;;;;;;;;;;5155278;27;20207;-72
2022/05/21 02:15:57;;;;;;;8.33;7.50;;;;;;;;;;5155386;27;20205;-72
2022/05/21 02:18:26;;;;;;;7.83;6.97;;;;;;;;;;5153868;27;20211;-72
2022/05/21 02:20:55;;;;;;;9.60;7.30;;;;;;;;;;5152051;27;20236;-73
2022/05/21 02:23:23;;;;;;;9.67;7.30;;;;;;;;;;5147269;27;20241;-73
2022/05/21 02:25:52;;;;;;;8.47;6.83;;;;;;;;;;5148599;27;20658;-73
2022/05/21 02:28:21;;;;;;;8.83;6.37;;;;;;;;;;5154326;27;20223;-72
2022/05/21 02:30:50;;;;;;;7.23;6.43;;;;;;;;;;5153159;27;20730;-73
2022/05/21 02:33:19;;;;;;;9.07;6.03;;;;;;;;;;5153987;27;20679;-72
2022/05/21 02:35:47;;;;;;;7.53;6.43;;;;;;;;;;5152615;27;20207;-73
2022/05/21 02:41:02;;;;;;;9.33;6.10;;;;;;;;;;5147022;27;20256;-73
2022/05/21 02:43:30;;;;;;;8.47;7.00;;;;;;;;;;5145207;27;20203;-72
2022/05/21 02:46:00;;;;;;;8.37;5.67;;;;;;;;;;5151483;27;20257;-73
2022/05/21 02:48:29;;;;;;;9.90;7.27;;;;;;;;;;5155553;27;20223;-73
2022/05/21 02:50:58;;;;;;;12.10;7.80;;;;;;;;;;5156094;27;20200;-72
2022/05/21 02:53:26;;;;;;;8.83;7.57;;;;;;;;;;5153607;27;20204;-73
2022/05/21 02:55:57;;;;;;;9.93;8.10;;;;;;;;;;5153636;27;20199;-72
2022/05/21 02:58:26;;;;;;;11.00;8.60;;;;;;;;;;5154136;27;20223;-73
2022/05/21 03:00:54;;;;;;;10.60;8.70;;;;;;;;;;5154639;27;20195;-73
2022/05/21 03:03:24;;;;;;;11.27;8.80;;;;;;;;;;5151061;27;20207;-72
2022/05/21 03:05:52;;;;;;;12.70;9.90;;;;;;;;;;5153503;27;20196;-73
2022/05/21 03:11:07;;;;;;;13.47;11.57;;;;;;;;;;5154204;27;20261;-72
2022/05/21 03:13:35;;;;;;;12.63;11.07;;;;;;;;;;5154427;27;20200;-72
2022/05/21 03:16:04;;;;;;;15.43;11.90;;;;;;;;;;5152446;27;20203;-72
2022/05/21 03:18:34;;;;;;;13.33;11.93;;;;;;;;;;5137394;27;20226;-72
2022/05/21 03:21:02;;;;;;;13.43;11.63;;;;;;;;;;5153338;27;20230;-72
2022/05/21 03:23:30;;;;;;;11.07;9.67;;;;;;;;;;5154009;27;20196;-72
2022/05/21 03:25:59;;;;;;;17.00;13.07;;;;;;;;;;5152665;27;20212;-73
2022/05/21 03:28:27;;;;;;;13.53;11.63;;;;;;;;;;5153053;27;20230;-73
2022/05/21 03:30:56;;;;;;;17.77;14.00;;;;;;;;;;5154138;27;20227;-73
2022/05/21 03:33:24;;;;;;;13.63;11.70;;;;;;;;;;5153339;27;20650;-73
2022/05/21 03:35:54;;;;;;;13.40;11.77;;;;;;;;;;5133626;28;20257;-72
2022/05/21 03:38:22;;;;;;;16.23;12.77;;;;;;;;;;5133918;28;20243;-73
2022/05/21 03:40:51;;;;;;;16.03;13.63;;;;;;;;;;5133807;28;20215;-72
2022/05/21 03:43:19;;;;;;;15.17;12.93;;;;;;;;;;5150294;27;20619;-72
2022/05/21 03:45:49;;;;;;;15.70;13.73;;;;;;;;;;5139643;27;20245;-72
2022/05/21 03:48:18;;;;;;;15.53;13.90;;;;;;;;;;5138373;27;20277;-73
2022/05/21 03:50:46;;;;;;;19.03;14.57;;;;;;;;;;5134943;28;20208;-72
2022/05/21 03:53:16;;;;;;;16.00;14.40;;;;;;;;;;5133617;28;20200;-73
2022/05/21 03:55:45;;;;;;;16.63;14.93;;;;;;;;;;5151961;27;20200;-72
2022/05/21 03:58:15;;;;;;;20.17;16.50;;;;;;;;;;5154197;27;20224;-73
2022/05/21 04:00:44;;;;;;;18.23;16.37;;;;;;;;;;5144017;27;20196;-73
2022/05/21 04:03:12;;;;;;;18.73;16.73;;;;;;;;;;5133458;27;20221;-73
2022/05/21 04:05:40;;;;;;;19.63;17.60;;;;;;;;;;5149616;27;20238;-73
2022/05/21 04:08:09;;;;;;;19.60;17.60;;;;;;;;;;5137417;27;20225;-73
2022/05/21 04:10:39;;;;;;;20.87;18.67;;;;;;;;;;5136822;27;20204;-73
2022/05/21 04:13:07;;;;;;;20.63;18.50;;;;;;;;;;5144763;27;20268;-73
2022/05/21 04:15:36;;;;;;;22.40;20.17;;;;;;;;;;5154209;27;20199;-71
2022/05/21 04:18:04;;;;;;;24.43;18.90;;;;;;;;;;5147013;27;20217;-72
2022/05/21 04:20:33;;;;;;;22.87;19.77;;;;;;;;;;5137244;27;20208;-72
2022/05/21 04:23:01;;;;;;;21.83;19.53;;;;;;;;;;5136869;27;20709;-73
2022/05/21 04:25:30;;;;;;;21.47;19.27;;;;;;;;;;5150248;27;20297;-73
2022/05/21 04:27:59;;;;;;;23.33;20.10;;;;;;;;;;5157632;27;20295;-72
2022/05/21 04:30:29;;;;;;;23.20;20.00;;;;;;;;;;5157226;27;20208;-73
2022/05/21 04:32:58;;;;;;;22.00;19.70;;;;;;;;;;5149905;27;20257;-72
2022/05/21 04:36:17;;;;;;;22.60;20.30;;;;;;;;;;5147056;27;20268;-73
2022/05/21 04:38:16;;;;;;;22.47;20.07;;;;;;;;;;5157115;27;20220;-73
2022/05/21 04:40:45;;;;;;;23.20;19.77;;;;;;;;;;5157624;27;20199;-72
2022/05/21 04:43:15;;;;;;;22.40;20.00;;;;;;;;;;5155535;27;20248;-72
2022/05/21 04:45:43;;;;;;;19.97;17.90;;;;;;;;;;5140475;27;20200;-74
2022/05/21 04:48:12;;;;;;;23.67;20.10;;;;;;;;;;5139360;27;20675;-73
2022/05/21 04:50:40;;;;;;;21.43;19.23;;;;;;;;;;5136917;27;20622;-72
2022/05/21 04:53:09;;;;;;;22.80;20.60;;;;;;;;;;5136132;27;20205;-72
2022/05/21 04:55:37;;;;;;;22.27;20.00;;;;;;;;;;5149045;27;20214;-73
2022/05/21 04:58:06;;;;;;;22.87;19.33;;;;;;;;;;5148859;27;20220;-73
2022/05/21 05:00:36;;;;;;;22.17;19.93;;;;;;;;;;5156425;27;20204;-72
2022/05/21 05:03:10;;;;;;;22.93;19.13;;;;;;;;;;5157037;27;20204;-71
2022/05/21 05:05:39;;;;;;;22.93;20.60;;;;;;;;;;5155694;27;20248;-73
2022/05/21 05:08:08;;;;;;;19.13;17.23;;;;;;;;;;5157059;27;20215;-73
2022/05/21 05:10:37;;;;;;;19.50;17.40;;;;;;;;;;5156409;27;20207;-73
2022/05/21 05:13:05;;;;;;;21.97;19.63;;;;;;;;;;5153768;27;20232;-72
2022/05/21 05:15:34;;;;;;;19.20;17.33;;;;;;;;;;5150096;27;20197;-73
2022/05/21 05:18:05;;;;;;;20.40;18.33;;;;;;;;;;5135645;27;20217;-73
2022/05/21 05:20:33;;;;;;;20.37;17.97;;;;;;;;;;5135773;27;20208;-73
2022/05/21 05:23:02;;;;;;;21.17;17.37;;;;;;;;;;5136092;27;20208;-73
2022/05/21 05:25:30;;;;;;;20.47;18.27;;;;;;;;;;5135512;27;20208;-73
2022/05/21 05:27:59;;;;;;;20.90;18.67;;;;;;;;;;5135605;27;20224;-72
2022/05/21 05:30:27;;;;;;;19.53;17.50;;;;;;;;;;5135472;27;20625;-73
2022/05/21 05:32:59;;;;;;;19.77;17.40;;;;;;;;;;5138832;27;20233;-72
2022/05/21 05:35:30;;;;;;;18.37;16.47;;;;;;;;;;5153218;27;20210;-73
2022/05/21 05:37:58;;;;;;;20.53;16.87;;;;;;;;;;5156116;27;20220;-73
2022/05/21 05:40:28;;;;;;;17.67;15.90;;;;;;;;;;5150653;27;20203;-73
2022/05/21 05:42:56;;;;;;;21.53;19.33;;;;;;;;;;5155150;27;20203;-72
2022/05/21 05:45:25;;;;;;;22.10;19.13;;;;;;;;;;5156497;27;20639;-73
2022/05/21 05:47:53;;;;;;;23.00;20.17;;;;;;;;;;5138456;27;20232;-73
2022/05/21 05:50:22;;;;;;;22.37;19.83;;;;;;;;;;5145019;27;20249;-72
2022/05/21 05:52:52;;;;;;;20.20;17.97;;;;;;;;;;5149398;27;20576;-73
2022/05/21 05:55:21;;;;;;;21.40;17.87;;;;;;;;;;5155245;27;20876;-72
2022/05/21 05:57:52;;;;;;;20.63;18.43;;;;;;;;;;5151438;27;20268;-72
2022/05/21 06:00:20;;;;;;;20.73;17.47;;;;;;;;;;5154152;27;20200;-72
2022/05/21 06:03:01;;;;;;;21.57;17.50;;;;;;;;;;5163629;27;20219;-73
2022/05/21 06:05:31;;;;;;;22.43;16.93;;;;;;;;;;5158196;27;20206;-73
2022/05/21 06:08:01;;;;;;;22.30;17.83;;;;;;;;;;5154845;27;20272;-73
2022/05/21 06:10:31;;;;;;;20.07;18.00;;;;;;;;;;5149425;27;20701;-73
2022/05/21 06:13:00;;;;;;;20.63;17.27;;;;;;;;;;5138775;27;20196;-73
2022/05/21 06:15:28;;;;;;;19.07;16.27;;;;;;;;;;5142774;27;20244;-72
2022/05/21 06:17:57;;;;;;;20.07;17.23;;;;;;;;;;5152849;27;20227;-73
2022/05/21 06:20:26;;;;;;;19.53;17.37;;;;;;;;;;5152050;27;20590;-73
2022/05/21 06:22:55;;;;;;;18.20;15.17;;;;;;;;;;5136492;27;20228;-72
2022/05/21 06:25:29;;;;;;;18.57;15.97;;;;;;;;;;5140891;27;20215;-72
2022/05/21 06:27:57;;;;;;;19.33;14.80;;;;;;;;;;5152575;27;20227;-73
2022/05/21 06:30:27;;;;;;;16.17;14.43;;;;;;;;;;5152937;27;20212;-72
2022/05/21 06:32:55;;;;;;;17.00;14.40;;;;;;;;;;5150043;27;20208;-72
2022/05/21 06:35:24;;;;;;;17.83;14.03;;;;;;;;;;5152160;27;20195;-73
2022/05/21 06:37:53;;;;;;;16.33;14.30;;;;;;;;;;5154725;27;20215;-73
2022/05/21 06:40:21;;;;;;;20.13;15.50;;;;;;;;;;5156569;27;20199;-73
2022/05/21 06:42:51;;;;;;;17.67;15.33;;;;;;;;;;5150569;27;20215;-73
2022/05/21 06:45:20;;;;;;;15.57;13.90;;;;;;;;;;5158149;27;20658;-73
2022/05/21 06:47:48;;;;;;;17.00;13.93;;;;;;;;;;5138237;27;20272;-73
2022/05/21 06:50:17;;;;;;;16.00;13.60;;;;;;;;;;5145365;27;20298;-73
2022/05/21 06:52:45;;;;;;;17.57;14.03;;;;;;;;;;5145148;27;20268;-73
2022/05/21 06:55:15;;;;;;;16.10;14.40;;;;;;;;;;5144574;27;20199;-73
2022/05/21 06:57:43;;;;;;;16.60;13.77;;;;;;;;;;5147790;27;20280;-72
2022/05/21 07:00:21;;;;;;;16.53;12.93;;;;;;;;;;5154753;27;20200;-74
2022/05/21 07:02:54;;;;;;;15.83;12.77;;;;;;;;;;5153041;27;20218;-74
2022/05/21 07:08:19;;;;;;;13.77;12.03;;;;;;;;;;5154369;27;20211;-74
2022/05/21 07:10:48;;;;;;;18.03;13.77;;;;;;;;;;5152039;27;20219;-73
2022/05/21 07:13:16;;;;;;;21.33;12.03;;;;;;;;;;5148252;27;20211;-73
2022/05/21 07:15:47;;;;;;;17.47;12.93;;;;;;;;;;5153277;27;20192;-73
2022/05/21 07:18:17;;;;;;;17.57;12.33;;;;;;;;;;5147358;27;20750;-74
2022/05/21 07:20:45;;;;;;;15.03;12.00;;;;;;;;;;5153564;27;20195;-73
2022/05/21 07:23:14;;;;;;;13.63;11.63;;;;;;;;;;5154095;27;20644;-73
2022/05/21 07:25:43;;;;;;;15.37;12.30;;;;;;;;;;5158967;27;20187;-72
2022/05/21 07:28:12;;;;;;;14.07;11.77;;;;;;;;;;5146083;27;20678;-74
2022/05/21 07:30:40;;;;;;;16.47;12.10;;;;;;;;;;5152559;27;20264;-73
2022/05/21 07:33:12;;;;;;;14.87;11.63;;;;;;;;;;5151685;27;20203;-74
2022/05/21 07:35:40;;;;;;;15.57;10.33;;;;;;;;;;5159944;27;20203;-73
2022/05/21 07:38:10;;;;;;;17.60;10.87;;;;;;;;;;5155273;27;20215;-73
2022/05/21 07:40:42;;;;;;;16.23;10.67;;;;;;;;;;5146903;27;20192;-74
2022/05/21 07:43:11;;;;;;;13.13;10.53;;;;;;;;;;5153203;27;20199;-73
2022/05/21 07:45:41;;;;;;;14.73;10.50;;;;;;;;;;5156921;27;20195;-72
2022/05/21 07:48:13;;;;;;;13.17;9.80;;;;;;;;;;5143628;27;20232;-72
2022/05/21 07:50:41;;;;;;;13.57;9.87;;;;;;;;;;5147625;27;20219;-73
2022/05/21 07:53:11;;;;;;;13.47;9.77;;;;;;;;;;5151394;27;20230;-72
2022/05/21 07:55:40;;;;;;;14.80;9.30;;;;;;;;;;5143555;27;20643;-72
2022/05/21 07:58:08;;;;;;;11.03;8.70;;;;;;;;;;5139434;27;20691;-72
2022/05/21 08:00:37;;;;;;;14.43;9.10;;;;;;;;;;5146922;27;20208;-73
2022/05/21 08:03:08;;;;;;;11.97;9.13;;;;;;;;;;5144716;27;20302;-73
2022/05/21 08:05:38;;;;;;;11.40;8.13;;;;;;;;;;5158443;27;20238;-72
2022/05/21 08:08:07;;;;;;;11.60;8.03;;;;;;;;;;5157678;27;20630;-73
2022/05/21 08:10:36;;;;;;;13.83;8.00;;;;;;;;;;5154185;27;20215;-74
2022/05/21 08:13:06;;;;;;;12.13;8.00;;;;;;;;;;5157569;27;20207;-72
2022/05/21 08:15:35;;;;;;;10.70;7.33;;;;;;;;;;5152882;27;20200;-73
2022/05/21 08:18:04;;;;;;;8.67;7.43;;;;;;;;;;5137299;27;20257;-72
2022/05/21 08:20:33;;;;;;;10.37;7.50;;;;;;;;;;5149864;27;20611;-71
2022/05/21 08:28:36;;;;;;;9.97;6.53;;;;;;;;;;5151087;27;20234;-72
2022/05/21 08:31:05;;;;;;;11.13;6.37;;;;;;;;;;5160049;27;20211;-73
2022/05/21 08:33:35;;;;;;;8.43;6.57;;;;;;;;;;5160165;27;20215;-73
2022/05/21 08:36:04;;;;;;;9.57;6.50;;;;;;;;;;5155469;27;20256;-73
2022/05/21 08:38:34;;;;;;;8.87;5.77;;;;;;;;;;5148618;27;20212;-74
2022/05/21 08:41:04;;;;;;;10.00;5.77;;;;;;;;;;5156313;27;20202;-73
2022/05/21 08:43:38;;;;;;;6.47;5.27;;;;;;;;;;5148353;27;20253;-73
2022/05/21 08:46:08;;;;;;;8.13;4.90;;;;;;;;;;5148547;27;20200;-72
2022/05/21 08:48:37;;;;;;;8.07;5.40;;;;;;;;;;5149683;27;20685;-71
2022/05/21 08:51:08;;;;;;;9.93;6.23;;;;;;;;;;5152227;27;20247;-73
2022/05/21 08:53:41;;;;;;;8.30;4.67;;;;;;;;;;5156510;27;20192;-72
2022/05/21 08:56:11;;;;;;;9.97;4.77;;;;;;;;;;5154076;27;20264;-73
2022/05/21 08:58:41;;;;;;;9.23;5.00;;;;;;;;;;5152868;27;20310;-73
2022/05/21 09:01:11;;;;;;;7.73;4.97;;;;;;;;;;5148953;27;20196;-72
2022/05/21 09:03:48;;;;;;;9.70;4.60;;;;;;;;;;5141814;27;20348;-73
2022/05/21 09:06:28;;;;;;;7.90;4.50;;;;;;;;;;5150097;27;20203;-73
2022/05/21 09:09:04;;;;;;;10.40;4.60;;;;;;;;;;5142639;27;21971;-73
2022/05/21 09:11:35;;;;;;;8.00;4.50;;;;;;;;;;5144899;27;20223;-72
2022/05/21 09:14:06;;;;;;;7.17;4.47;;;;;;;;;;5139681;27;20199;-72
2022/05/21 09:16:55;;;;;;;10.43;4.30;;;;;;;;;;5152188;27;20203;-73
2022/05/21 09:19:25;;;;;;;10.48;4.50;;;;;;;;;;5153030;27;20634;-73
2022/05/21 09:22:01;;;;;;;5.50;3.25;;;;;;;;;;5138576;27;20711;-73
2022/05/21 09:24:35;;;;;;;5.70;3.58;;;;;;;;;;5151684;27;20206;-72
2022/05/21 09:27:05;;;;;;;6.07;3.58;;;;;;;;;;5153902;27;20207;-74
2022/05/21 09:29:35;;;;;;;7.65;3.38;;;;;;;;;;5133878;27;20204;-73
2022/05/21 09:32:17;;;;;;;7.18;3.05;;;;;;;;;;5147007;27;20226;-73
2022/05/21 09:34:45;;;;;;;8.98;3.25;;;;;;;;;;5157133;27;20598;-72
2022/05/21 09:37:17;;;;;;;8.20;3.38;;;;;;;;;;5147763;27;20708;-72
2022/05/21 09:39:46;;;;;;;6.75;3.30;;;;;;;;;;5152787;27;20196;-72
2022/05/21 09:48:14;;;;;;;8.10;3.45;;;;;;;;;;5155510;27;20227;-72
2022/05/21 09:50:46;;;;;;;5.35;3.10;;;;;;;;;;5144079;27;20226;-73
2022/05/21 09:53:21;;;;;;;7.30;2.90;;;;;;;;;;5139116;27;20257;-73
2022/05/21 09:55:59;;;;;;;8.77;2.90;;;;;;;;;;5148484;27;20219;-74
2022/05/21 09:58:27;;;;;;;9.02;3.13;;;;;;;;;;5134951;27;20227;-74
2022/05/21 10:00:57;;;;;;;8.27;3.30;;;;;;;;;;5133920;27;20192;-73
2022/05/21 10:03:45;;;;;;;5.60;2.70;;;;;;;;;;5133509;27;20203;-74
2022/05/21 10:06:26;;;;;;;8.77;2.70;;;;;;;;;;5151315;27;20199;-73
2022/05/21 10:11:48;;;;;;;7.72;2.70;;;;;;;;;;5141816;27;20212;-74
2022/05/21 10:14:19;;;;;;;7.53;2.65;;;;;;;;;;5151938;27;20256;-74
2022/05/21 10:16:49;;;;;;;4.35;2.20;;;;;;;;;;5146591;27;20703;-73
2022/05/21 10:19:20;;;;;;;5.25;2.10;;;;;;;;;;5134766;27;20563;-74
2022/05/21 10:21:55;;;;;;;6.22;2.28;;;;;;;;;;5141017;27;20195;-73
2022/05/21 10:24:26;;;;;;;5.03;1.85;;;;;;;;;;5151620;27;20199;-72
2022/05/21 10:27:00;;;;;;;6.18;2.33;;;;;;;;;;5145189;27;20249;-72
2022/05/21 10:29:40;;;;;;;7.93;2.40;;;;;;;;;;5134291;27;20196;-73
2022/05/21 10:32:13;;;;;;;6.57;2.35;;;;;;;;;;5135204;27;20273;-73
2022/05/21 10:34:47;;;;;;;5.90;2.50;;;;;;;;;;5150939;27;20199;-73
2022/05/21 10:37:24;;;;;;;5.20;2.60;;;;;;;;;;5154136;27;20227;-73
2022/05/21 10:40:07;;;;;;;6.05;2.50;;;;;;;;;;5152052;27;20199;-77
2022/05/21 10:42:42;;;;;;;6.07;2.40;;;;;;;;;;5144707;27;20196;-73
2022/05/21 10:45:17;;;;;;;7.10;2.70;;;;;;;;;;5137699;27;20239;-73
2022/05/21 10:48:15;;;;;;;28.02;9.48;;;;;;;;;;5151688;27;20233;-73
2022/05/21 10:50:50;;;;;;;34.10;11.65;;;;;;;;;;5060569;28;20602;-74
2022/05/21 10:53:33;;;;;;;7.45;2.00;;;;;;;;;;5137707;27;20689;-72
2022/05/21 10:56:07;;;;;;;6.60;2.55;;;;;;;;;;5104429;27;20576;-73
2022/05/21 10:58:47;;;;;;;4.78;2.30;;;;;;;;;;5138136;27;20694;-72
2022/05/21 11:01:16;;;;;;;6.35;2.50;;;;;;;;;;5149197;27;20200;-74
2022/05/21 11:04:02;;;;;;;5.15;2.17;;;;;;;;;;5151431;27;20199;-72
2022/05/21 11:06:38;;;;;;;5.90;2.00;;;;;;;;;;5147794;27;20200;-73
2022/05/21 11:09:12;;;;;;;5.47;2.05;;;;;;;;;;5147782;27;20223;-72
2022/05/21 11:11:49;;;;;;;5.57;2.50;;;;;;;;;;5142848;27;20298;-72
2022/05/21 11:14:24;;;;;;;5.45;2.53;;;;;;;;;;5145597;27;20718;-74
2022/05/21 11:16:56;;;;;;;3.60;1.85;;;;;;;;;;5149361;27;20205;-72
2022/05/21 11:19:31;;;;;;;5.90;2.03;;;;;;;;;;5144481;27;20267;-73
2022/05/21 11:22:08;;;;;;;5.75;2.05;;;;;;;;;;5157668;27;20191;-72
2022/05/21 11:24:38;;;;;;;4.80;2.05;;;;;;;;;;5141353;27;20248;-71
2022/05/21 11:27:11;;;;;;;4.35;1.90;;;;;;;;;;5142749;27;20200;-72
2022/05/21 11:29:52;;;;;;;7.57;2.30;;;;;;;;;;5143234;27;20200;-73
2022/05/21 11:38:01;;;;;;;8.35;2.35;;;;;;;;;;5157398;27;20229;-71
2022/05/21 11:40:52;;;;;;;5.68;1.90;;;;;;;;;;5152768;27;20711;-73
2022/05/21 11:43:21;;;;;;;4.55;1.98;;;;;;;;;;5148159;27;20654;-73
2022/05/21 11:46:01;;;;;;;6.63;2.10;;;;;;;;;;5158738;27;20196;-73
2022/05/21 11:48:30;;;;;;;8.30;2.10;;;;;;;;;;5157739;27;20686;-72
2022/05/21 11:51:23;;;;;;;4.47;1.67;;;;;;;;;;5164367;27;20251;-73
2022/05/21 11:54:04;;;;;;;6.28;2.10;;;;;;;;;;5150818;27;20206;-73
2022/05/21 11:56:50;;;;;;;5.32;1.73;;;;;;;;;;5157136;27;20210;-74
2022/05/21 11:59:24;;;;;;;4.00;1.88;;;;;;;;;;5155263;27;20239;-72
2022/05/21 12:02:12;;;;;;;5.20;2.10;;;;;;;;;;5139202;27;20642;-72
2022/05/21 12:04:50;;;;;;;6.97;2.28;;;;;;;;;;5137871;27;20204;-73
2022/05/21 12:07:38;;;;;;;5.68;2.03;;;;;;;;;;5145522;27;20271;-73
2022/05/21 12:10:13;;;;;;;8.30;1.95;;;;;;;;;;5150822;27;20204;-73
2022/05/21 12:12:59;;;;;;;6.15;2.03;;;;;;;;;;5157795;27;20279;-74
2022/05/21 12:15:35;;;;;;;5.57;2.00;;;;;;;;;;5156038;27;20204;-71
2022/05/21 12:18:06;;;;;;;5.13;2.10;;;;;;;;;;5155028;27;20606;-72
2022/05/21 12:20:42;;;;;;;4.18;1.85;;;;;;;;;;5150502;27;20200;-74
2022/05/21 12:23:14;;;;;;;4.43;2.10;;;;;;;;;;5136915;27;20355;-72
2022/05/21 12:26:00;;;;;;;7.13;2.03;;;;;;;;;;5137093;27;20212;-73
2022/05/21 12:28:37;;;;;;;7.00;2.25;;;;;;;;;;5157527;27;20224;-74
2022/05/21 12:31:07;;;;;;;7.15;2.13;;;;;;;;;;5154041;27;20210;-73
2022/05/21 12:33:41;;;;;;;4.38;1.90;;;;;;;;;;5141322;27;20654;-73
2022/05/21 12:36:24;;;;;;;4.43;2.08;;;;;;;;;;5142454;27;20208;-73
2022/05/21 12:38:54;;;;;;;4.40;1.90;;;;;;;;;;5139185;27;20314;-72
2022/05/21 12:41:25;;;;;;;6.15;2.17;;;;;;;;;;5150640;27;20569;-73
2022/05/21 12:43:56;;;;;;;3.85;1.83;;;;;;;;;;5143837;27;20648;-72
2022/05/21 12:46:27;;;;;;;5.40;2.00;;;;;;;;;;5150828;27;20296;-72
2022/05/21 12:48:57;;;;;;;4.35;1.60;;;;;;;;;;5153845;27;20586;-72
2022/05/21 12:51:31;;;;;;;5.45;1.83;;;;;;;;;;5155017;27;20620;-72
2022/05/21 12:54:08;;;;;;;7.53;1.90;;;;;;;;;;5154822;27;20251;-72
2022/05/21 12:56:38;;;;;;;5.43;2.10;;;;;;;;;;5153437;27;20252;-72
2022/05/21 12:59:12;;;;;;;6.78;1.98;;;;;;;;;;5147340;27;20224;-73
2022/05/21 13:01:51;;;;;;;3.58;1.77;;;;;;;;;;5151746;27;20214;-72
2022/05/21 13:04:24;;;;;;;4.88;1.75;;;;;;;;;;5136211;27;20203;-72
2022/05/21 13:06:55;;;;;;;6.95;1.95;;;;;;;;;;5153416;27;20207;-72
2022/05/21 13:09:24;;;;;;;4.32;1.80;;;;;;;;;;5154439;27;20214;-72
2022/05/21 13:11:53;;;;;;;6.30;1.88;;;;;;;;;;5154359;27;20287;-73
2022/05/21 13:14:29;;;;;;;2.92;1.60;;;;;;;;;;5154520;27;20272;-72
2022/05/21 13:16:59;;;;;;;5.78;1.95;;;;;;;;;;5135391;27;20601;-72
2022/05/21 13:19:38;;;;;;;6.00;1.92;;;;;;;;;;5142982;27;20319;-72
2022/05/21 13:22:11;;;;;;;4.53;1.75;;;;;;;;;;5140861;27;20207;-72
2022/05/21 13:24:45;;;;;;;3.88;1.70;;;;;;;;;;5151872;27;20203;-73
2022/05/21 13:27:15;;;;;;;4.10;1.63;;;;;;;;;;5155401;27;20573;-74
2022/05/21 13:29:46;;;;;;;4.60;1.55;;;;;;;;;;5147418;27;20204;-71
2022/05/21 13:32:16;;;;;;;5.03;1.75;;;;;;;;;;5141239;27;20219;-73
2022/05/21 13:34:44;;;;;;;4.13;1.60;;;;;;;;;;5154265;27;20200;-72
2022/05/21 13:37:13;;;;;;;4.45;1.58;;;;;;;;;;5147648;27;20709;-74
2022/05/21 13:39:42;;;;;;;5.90;1.80;;;;;;;;;;5137097;27;20200;-73
2022/05/21 13:42:13;;;;;;;4.45;1.50;;;;;;;;;;5145702;27;20199;-74
2022/05/21 13:44:42;;;;;;;2.78;1.45;;;;;;;;;;5145667;27;20216;-71
2022/05/21 13:47:17;;;;;;;4.00;1.40;;;;;;;;;;5142822;27;20228;-70
2022/05/21 13:49:48;;;;;;;3.70;1.30;;;;;;;;;;5135237;27;20208;-71
2022/05/21 13:52:16;;;;;;;4.68;1.70;;;;;;;;;;5141794;27;20609;-74
2022/05/21 13:54:45;;;;;;;3.67;1.48;;;;;;;;;;5152269;27;20215;-73
2022/05/21 13:57:15;;;;;;;5.60;1.80;;;;;;;;;;5139891;27;20217;-73
2022/05/21 13:59:49;;;;;;;3.70;1.60;;;;;;;;;;5150069;27;20224;-73
2022/05/21 14:02:23;;;;;;;3.40;1.35;;;;;;;;;;5151683;27;20248;-73
2022/05/21 14:04:51;;;;;;;4.40;1.65;;;;;;;;;;5146566;27;20204;-73
2022/05/21 14:07:21;;;;;;;4.82;1.58;;;;;;;;;;5150087;27;20287;-73
2022/05/21 14:09:52;;;;;;;3.55;1.65;;;;;;;;;;5144238;27;20261;-73
2022/05/21 14:12:25;;;;;;;2.72;1.25;;;;;;;;;;5140328;27;20199;-72
2022/05/21 14:14:57;;;;;;;4.20;1.55;;;;;;;;;;5149949;27;20585;-71
2022/05/21 14:17:34;;;;;;;3.30;1.30;;;;;;;;;;5153797;27;20640;-73
2022/05/21 14:20:23;;;;;;;2.85;1.30;;;;;;;;;;5155203;27;20191;-72
2022/05/21 14:22:53;;;;;;;6.38;1.50;;;;;;;;;;5145444;27;20303;-74
2022/05/21 14:25:27;;;;;;;3.15;1.15;;;;;;;;;;5150124;27;20203;-73
2022/05/21 14:27:56;;;;;;;5.03;1.42;;;;;;;;;;5154734;27;20231;-73
2022/05/21 14:30:33;;;;;;;2.53;1.30;;;;;;;;;;5154237;27;20196;-74
2022/05/21 14:33:13;;;;;;;5.15;1.25;;;;;;;;;;5139188;27;20218;-74
2022/05/21 14:35:42;;;;;;;3.72;1.45;;;;;;;;;;5154890;27;20203;-74
2022/05/21 14:38:11;;;;;;;5.38;1.70;;;;;;;;;;5146217;27;20227;-73
2022/05/21 14:40:46;;;;;;;3.40;1.30;;;;;;;;;;5136340;27;20287;-73
2022/05/21 14:43:20;;;;;;;4.03;1.73;;;;;;;;;;5152822;27;20282;-74
2022/05/21 14:45:48;;;;;;;2.92;1.40;;;;;;;;;;5152779;27;20205;-74
2022/05/21 14:48:18;;;;;;;3.08;1.48;;;;;;;;;;5155315;27;20255;-74
2022/05/21 14:53:36;;;;;;;5.38;1.40;;;;;;;;;;5153313;27;20309;-73
2022/05/21 14:56:06;;;;;;;6.32;1.48;;;;;;;;;;5152974;27;20227;-73
2022/05/21 14:58:34;;;;;;;4.32;1.40;;;;;;;;;;5151241;27;20215;-75
2022/05/21 15:01:03;;;;;;;6.25;1.85;;;;;;;;;;5152248;27;20224;-73
2022/05/21 15:03:34;;;;;;;4.47;1.58;;;;;;;;;;5150548;27;20208;-73
2022/05/21 15:06:03;;;;;;;5.45;1.50;;;;;;;;;;5152506;27;20257;-75
2022/05/21 15:08:35;;;;;;;3.13;1.80;;;;;;;;;;5153750;27;20219;-72
2022/05/21 15:11:04;;;;;;;5.45;1.75;;;;;;;;;;5152175;27;20722;-74
2022/05/21 15:13:34;;;;;;;7.07;2.00;;;;;;;;;;5153841;27;20712;-75
2022/05/21 15:16:02;;;;;;;3.92;1.80;;;;;;;;;;5148097;27;20198;-73
2022/05/21 15:18:31;;;;;;;3.25;1.20;;;;;;;;;;5146369;27;20628;-73
2022/05/21 15:29:08;;;;;;;4.10;1.35;;;;;;;;;;4675790;23;10001812;-71
2022/05/21 15:31:37;;;;;;;3.15;0.98;;;;;;;;;;4990110;28;20212;-72
2022/05/21 15:34:05;;;;;;;3.65;1.40;;;;;;;;;;4990573;28;20231;-72
2022/05/21 15:36:34;;;;;;;2.80;1.60;;;;;;;;;;4987747;28;20539;-72
2022/05/21 15:39:02;;;;;;;2.17;1.02;;;;;;;;;;4989934;28;20627;-73
2022/05/21 15:41:30;;;;;;;2.60;1.13;;;;;;;;;;4990151;28;20210;-74
2022/05/21 15:43:59;;;;;;;3.13;1.40;;;;;;;;;;4991938;28;20208;-73